createdAt,value
2023-03-21T00:00:44.681Z,100984.84
2023-03-21T00:03:11.855Z,100993.38
2023-03-21T00:05:49.658Z,100989.53
2023-03-21T00:08:16.794Z,100978.94
2023-03-21T00:10:44.771Z,100983.09
2023-03-21T00:13:14.694Z,100985.69
2023-03-21T00:16:09.338Z,100985.25
2023-03-21T00:18:52.408Z,100980.97
2023-03-21T00:21:40.919Z,100985.38
2023-03-21T00:24:09.784Z,100982.78
2023-03-21T00:26:38.068Z,100969.97
2023-03-21T00:29:05.685Z,100969.88
2023-03-21T00:31:32.743Z,100969.97
2023-03-21T00:34:00.771Z,100971.47
2023-03-21T00:36:28.531Z,100973.41
2023-03-21T00:38:55.707Z,100970.63
2023-03-21T00:41:39.121Z,100964.44
2023-03-21T00:44:08.809Z,100966.94
2023-03-21T00:46:45.526Z,100972.91
2023-03-21T00:49:20.852Z,100964.78
2023-03-21T00:51:51.771Z,100967.41
2023-03-21T00:54:19.572Z,100969.56
2023-03-21T00:56:46.676Z,100958.38
2023-03-21T00:59:13.997Z,100966.28
2023-03-21T01:01:41.321Z,100957.94
2023-03-21T01:04:13.590Z,100965.06
2023-03-21T01:06:43.950Z,100962.78
2023-03-21T01:09:19.518Z,100958.59
2023-03-21T01:11:47.373Z,100956.69
2023-03-21T01:14:24.739Z,100959.19
2023-03-21T01:16:53.700Z,100953.81
2023-03-21T01:19:41.021Z,100949.78
2023-03-21T01:22:12.526Z,100951.19
2023-03-21T01:24:50.216Z,100956.19
2023-03-21T01:27:20.174Z,100958.09
2023-03-21T01:29:47.372Z,100953.09
2023-03-21T01:32:14.504Z,100953.81
2023-03-21T01:34:41.666Z,100955.25
2023-03-21T01:37:08.778Z,100958.75
2023-03-21T01:39:35.943Z,100946.94
2023-03-21T01:42:03.107Z,100959.06
2023-03-21T01:44:30.771Z,100951.50
2023-03-21T01:47:13.386Z,100967.22
2023-03-21T01:49:45.942Z,100959.91
2023-03-21T01:52:36.606Z,100952.63
2023-03-21T01:55:12.030Z,100954.09
2023-03-21T01:58:03.927Z,100953.41
2023-03-21T02:00:33.322Z,100947.88
2023-03-21T02:03:15.209Z,100946.53
2023-03-21T02:06:03.193Z,100950.28
2023-03-21T02:08:39.548Z,100949.13
2023-03-21T02:11:12.287Z,100948.63
2023-03-21T02:13:40.618Z,100944.84
2023-03-21T02:16:52.265Z,100944.56
2023-03-21T02:19:55.958Z,100951.13
2023-03-21T02:23:00.131Z,100948.63
2023-03-21T02:26:42.283Z,100948.59
2023-03-21T02:29:46.443Z,100940.72
2023-03-21T02:33:23.559Z,100936.94
2023-03-21T02:36:25.597Z,100937.53
2023-03-21T02:38:56.238Z,100937.41
2023-03-21T02:41:48.601Z,100940.00
2023-03-21T02:44:56.192Z,100938.16
2023-03-21T02:47:52.684Z,100945.53
2023-03-21T02:50:29.942Z,100934.56
2023-03-21T02:52:58.802Z,100944.81
2023-03-21T02:55:31.035Z,100936.22
2023-03-21T02:58:11.755Z,100945.19
2023-03-21T03:00:40.539Z,100946.63
2023-03-21T03:03:11.395Z,100938.63
2023-03-21T03:05:52.200Z,100941.25
2023-03-21T03:09:03.268Z,100956.03
2023-03-21T03:12:12.468Z,100940.06
2023-03-21T03:15:05.784Z,100940.53
2023-03-21T03:17:46.437Z,100943.88
2023-03-21T03:20:51.259Z,100944.13
2023-03-21T03:23:42.249Z,100947.19
2023-03-21T03:26:47.836Z,100950.66
2023-03-21T03:29:20.812Z,100945.78
2023-03-21T03:32:09.418Z,100939.72
2023-03-21T03:34:44.002Z,100947.69
2023-03-21T03:37:17.638Z,100947.09
2023-03-21T03:39:57.964Z,100950.31
2023-03-21T03:42:34.572Z,100952.09
2023-03-21T03:45:05.558Z,100960.09
2023-03-21T03:48:15.781Z,100955.44
2023-03-21T03:50:54.062Z,100949.38
2023-03-21T03:53:37.045Z,100961.84
2023-03-21T03:56:08.290Z,100953.41
2023-03-21T03:58:45.308Z,100959.81
2023-03-21T04:01:14.125Z,100960.53
2023-03-21T04:03:50.616Z,100956.00
2023-03-21T04:06:22.038Z,100953.41
2023-03-21T04:08:50.933Z,100954.47
2023-03-21T04:11:18.117Z,100947.09
2023-03-21T04:13:45.374Z,100950.28
2023-03-21T04:16:13.018Z,100946.47
2023-03-21T04:18:41.923Z,100948.22
2023-03-21T04:21:13.911Z,100944.06
2023-03-21T04:23:43.120Z,100945.53
2023-03-21T04:26:10.965Z,100947.19
2023-03-21T04:28:39.776Z,100950.53
2023-03-21T04:31:22.671Z,100941.25
2023-03-21T04:33:52.008Z,100944.69
2023-03-21T04:36:27.515Z,100942.56
2023-03-21T04:38:57.326Z,100935.16
2023-03-21T04:41:26.200Z,100943.28
2023-03-21T04:43:54.373Z,100954.94
2023-03-21T04:46:21.925Z,100948.41
2023-03-21T04:48:49.515Z,100943.88
2023-03-21T04:51:17.568Z,100952.31
2023-03-21T04:53:45.915Z,100952.09
2023-03-21T04:56:13.127Z,100948.63
2023-03-21T04:58:43.167Z,100950.88
2023-03-21T05:01:10.522Z,100949.47
2023-03-21T05:03:40.335Z,100943.63
2023-03-21T05:06:10.334Z,100947.19
2023-03-21T05:08:41.821Z,100957.28
2023-03-21T05:11:09.036Z,100961.84
2023-03-21T05:13:36.395Z,100960.06
2023-03-21T05:16:03.755Z,100952.69
2023-03-21T05:18:34.854Z,100956.78
2023-03-21T05:21:04.224Z,100958.28
2023-03-21T05:23:31.634Z,100965.09
2023-03-21T05:25:58.722Z,100950.06
2023-03-21T05:28:31.421Z,100957.69
2023-03-21T05:30:58.686Z,100947.19
2023-03-21T05:33:26.301Z,100949.38
2023-03-21T05:35:56.021Z,100945.53
2023-03-21T05:38:26.564Z,100949.59
2023-03-21T05:40:55.041Z,100943.41
2023-03-21T05:43:22.487Z,100941.97
2023-03-21T05:45:50.208Z,100950.06
2023-03-21T05:48:17.802Z,100953.16
2023-03-21T05:50:45.869Z,100943.50
2023-03-21T05:53:13.162Z,100952.78
2023-03-21T05:55:40.484Z,100953.66
2023-03-21T05:58:07.667Z,100954.72
2023-03-21T06:00:36.770Z,100948.88
2023-03-21T06:03:04.058Z,100963.53
2023-03-21T06:05:34.629Z,100953.06
2023-03-21T06:08:04.194Z,100950.66
2023-03-21T06:10:31.652Z,100952.69
2023-03-21T06:13:00.024Z,100945.38
2023-03-21T06:15:27.351Z,100958.59
2023-03-21T06:17:54.429Z,100957.41
2023-03-21T06:20:21.857Z,100956.44
2023-03-21T06:22:49.153Z,100960.03
2023-03-21T06:25:17.732Z,100966.59
2023-03-21T06:27:45.102Z,100958.22
2023-03-21T06:30:13.640Z,100966.69
2023-03-21T06:32:42.136Z,100963.97
2023-03-21T06:35:09.729Z,100962.13
2023-03-21T06:37:36.812Z,100964.09
2023-03-21T06:40:08.004Z,100967.69
2023-03-21T06:42:35.565Z,100970.50
2023-03-21T06:45:05.879Z,100970.78
2023-03-21T06:47:34.214Z,100976.25
2023-03-21T06:50:01.311Z,100977.41
2023-03-21T06:52:28.378Z,100968.25
2023-03-21T06:54:55.460Z,100974.13
2023-03-21T06:57:22.556Z,100975.06
2023-03-21T06:59:49.602Z,100973.94
2023-03-21T07:02:16.813Z,100968.63
2023-03-21T07:04:43.949Z,100980.31
2023-03-21T07:07:11.034Z,100971.69
2023-03-21T07:09:40.503Z,100978.59
2023-03-21T07:12:07.661Z,100969.03
2023-03-21T07:14:37.080Z,100971.66
2023-03-21T07:17:04.451Z,100979.47
2023-03-21T07:19:31.918Z,100976.16
2023-03-21T07:22:01.432Z,100984.38
2023-03-21T07:24:28.485Z,100980.91
2023-03-21T07:26:56.135Z,100985.22
2023-03-21T07:29:23.407Z,100985.84
2023-03-21T07:31:50.486Z,100990.09
2023-03-21T07:34:18.816Z,100991.00
2023-03-21T07:36:48.759Z,100982.38
2023-03-21T07:39:17.592Z,100988.75
2023-03-21T07:41:44.873Z,100990.25
2023-03-21T07:44:12.079Z,100994.81
2023-03-21T07:46:41.457Z,100988.50
2023-03-21T07:49:08.950Z,100988.59
2023-03-21T07:51:37.233Z,100984.31
2023-03-21T07:54:04.773Z,100985.03
2023-03-21T07:56:31.855Z,100980.47
2023-03-21T07:58:59.412Z,100992.09
2023-03-21T08:01:26.897Z,100987.19
2023-03-21T08:03:54.083Z,100984.38
2023-03-21T08:06:21.645Z,100980.72
2023-03-21T08:08:48.956Z,100976.75
2023-03-21T08:11:16.009Z,100981.16
2023-03-21T08:13:43.155Z,100988.59
2023-03-21T08:16:10.383Z,100984.25
2023-03-21T08:18:37.630Z,100987.13
2023-03-21T08:21:05.067Z,100982.88
2023-03-21T08:23:32.425Z,100982.00
2023-03-21T08:25:59.522Z,100985.00
2023-03-21T08:28:27.232Z,100980.97
2023-03-21T08:30:56.063Z,100982.88
2023-03-21T08:33:23.985Z,100986.00
2023-03-21T08:35:51.336Z,100982.66
2023-03-21T08:38:18.441Z,100983.34
2023-03-21T08:40:45.765Z,100987.81
2023-03-21T08:43:14.841Z,100985.09
2023-03-21T08:45:42.185Z,100981.50
2023-03-21T08:48:09.328Z,100989.91
2023-03-21T08:50:36.507Z,100987.88
2023-03-21T08:53:03.587Z,100990.44
2023-03-21T08:55:33.241Z,100986.97
2023-03-21T08:58:00.907Z,100989.63
2023-03-21T09:00:28.869Z,100978.63
2023-03-21T09:02:58.674Z,100985.97
2023-03-21T09:05:27.112Z,100988.44
2023-03-21T09:07:54.593Z,100991.31
2023-03-21T09:10:24.212Z,100987.00
2023-03-21T09:12:55.584Z,100987.41
2023-03-21T09:15:29.699Z,100985.03
2023-03-21T09:17:58.556Z,100987.94
2023-03-21T09:20:31.181Z,100987.69
2023-03-21T09:22:59.702Z,100983.91
2023-03-21T09:25:31.812Z,100991.25
2023-03-21T09:28:00.993Z,100988.63
2023-03-21T09:30:29.325Z,100990.28
2023-03-21T09:32:56.948Z,100990.88
2023-03-21T09:35:24.825Z,100984.53
2023-03-21T09:37:52.498Z,100988.66
2023-03-21T09:41:16.696Z,100984.59
2023-03-21T09:44:11.475Z,100985.84
2023-03-21T09:47:02.976Z,100972.31
2023-03-21T09:49:42.133Z,100985.03
2023-03-21T09:52:29.665Z,100980.56
2023-03-21T09:54:57.069Z,100979.47
2023-03-21T09:57:43.738Z,100971.41
2023-03-21T10:00:27.324Z,100981.75
2023-03-21T10:02:59.836Z,100974.34
2023-03-21T10:05:32.785Z,100971.88
2023-03-21T10:08:25.090Z,100971.81
2023-03-21T10:11:18.811Z,100969.97
2023-03-21T10:14:07.608Z,100972.47
2023-03-21T10:16:53.622Z,100966.88
2023-03-21T10:19:21.184Z,100964.19
2023-03-21T10:22:01.685Z,100964.63
2023-03-21T10:24:34.608Z,100964.91
2023-03-21T10:27:04.475Z,100961.28
2023-03-21T10:29:45.612Z,100963.59
2023-03-21T10:32:17.137Z,100957.66
2023-03-21T10:37:24.736Z,100959.41
2023-03-21T10:39:55.188Z,100957.19
2023-03-21T10:42:31.436Z,100961.22
2023-03-21T10:44:59.201Z,100949.19
2023-03-21T10:47:34.103Z,100951.94
2023-03-21T10:50:13.726Z,100943.59
2023-03-21T10:53:00.383Z,100945.72
2023-03-21T10:55:33.976Z,100941.19
2023-03-21T10:58:10.722Z,100938.81
2023-03-21T11:00:43.394Z,100947.47
2023-03-21T11:03:28.892Z,100946.75
2023-03-21T11:06:06.960Z,100946.75
2023-03-21T11:08:51.272Z,100939.53
2023-03-21T11:11:29.234Z,100938.56
2023-03-21T11:14:08.817Z,100940.78
2023-03-21T11:16:44.214Z,100944.28
2023-03-21T11:19:20.344Z,100931.78
2023-03-21T11:21:47.702Z,100926.94
2023-03-21T11:24:19.863Z,100935.59
2023-03-21T11:26:50.752Z,100918.56
2023-03-21T11:29:38.817Z,100925.84
2023-03-21T11:32:34.946Z,100923.50
2023-03-21T11:35:21.670Z,100928.59
2023-03-21T11:37:57.068Z,100926.09
2023-03-21T11:40:31.594Z,100926.91
2023-03-21T11:43:25.712Z,100916.94
2023-03-21T11:46:12.727Z,100916.25
2023-03-21T11:48:48.744Z,100905.81
2023-03-21T11:51:57.222Z,100902.53
2023-03-21T11:54:57.162Z,100899.22
2023-03-21T11:58:05.332Z,100897.28
2023-03-21T12:01:24.229Z,100897.56
2023-03-21T12:04:46.886Z,100891.53
2023-03-21T12:07:41.480Z,100882.16
2023-03-21T12:10:36.276Z,100878.81
2023-03-21T12:13:40.333Z,100880.59
2023-03-21T12:16:58.017Z,100876.22
2023-03-21T12:19:59.717Z,100875.19
2023-03-21T12:23:06.429Z,100872.38
2023-03-21T12:26:18.334Z,100867.50
2023-03-21T12:29:33.676Z,100862.53
2023-03-21T12:32:29.613Z,100853.50
2023-03-21T12:35:20.438Z,100858.72
2023-03-21T12:38:26.090Z,100862.13
2023-03-21T12:41:20.911Z,100855.09
2023-03-21T12:44:01.542Z,100852.59
2023-03-21T12:46:55.802Z,100844.56
2023-03-21T12:49:57.741Z,100838.13
2023-03-21T12:52:44.475Z,100843.63
2023-03-21T12:55:34.742Z,100840.56
2023-03-21T12:58:18.245Z,100835.72
2023-03-21T13:00:56.203Z,100836.81
2023-03-21T13:04:07.086Z,100830.06
2023-03-21T13:06:36.741Z,100827.06
2023-03-21T13:09:28.490Z,100823.56
2023-03-21T13:12:07.762Z,100813.72
2023-03-21T13:14:47.661Z,100819.31
2023-03-21T13:17:37.332Z,100811.47
2023-03-21T13:20:51.773Z,100814.25
2023-03-21T13:23:23.653Z,100809.72
2023-03-21T13:25:55.350Z,100806.78
2023-03-21T13:28:34.448Z,100806.66
2023-03-21T13:31:18.371Z,100796.44
2023-03-21T13:33:53.598Z,100791.13
2023-03-21T13:36:32.080Z,100796.81
2023-03-21T13:39:06.069Z,100792.22
2023-03-21T13:41:39.112Z,100792.84
2023-03-21T13:44:22.795Z,100783.78
2023-03-21T13:47:06.701Z,100785.13
2023-03-21T13:49:38.445Z,100784.91
2023-03-21T13:52:14.010Z,100783.88
2023-03-21T13:54:56.154Z,100782.56
2023-03-21T13:57:47.072Z,100774.56
2023-03-21T14:00:24.199Z,100774.16
2023-03-21T14:03:13.329Z,100776.00
2023-03-21T14:05:41.704Z,100777.16
2023-03-21T14:08:24.857Z,100768.81
2023-03-21T14:11:04.139Z,100769.81
2023-03-21T14:13:35.068Z,100763.22
2023-03-21T14:16:15.466Z,100761.88
2023-03-21T14:19:11.881Z,100764.25
2023-03-21T14:21:51.551Z,100759.56
2023-03-21T14:24:20.929Z,100756.00
2023-03-21T14:26:54.060Z,100754.66
2023-03-21T14:29:31.650Z,100756.41
2023-03-21T14:32:00.984Z,100753.47
2023-03-21T14:34:33.343Z,100748.22
2023-03-21T14:37:00.615Z,100742.66
2023-03-21T14:39:33.732Z,100748.72
2023-03-21T14:42:14.075Z,100739.03
2023-03-21T14:44:55.259Z,100741.84
2023-03-21T14:47:32.257Z,100733.63
2023-03-21T14:50:02.045Z,100733.03
2023-03-21T14:52:34.626Z,100732.44
2023-03-21T14:55:13.667Z,100732.97
2023-03-21T14:57:40.801Z,100728.06
2023-03-21T15:00:20.838Z,100728.97
2023-03-21T15:02:48.085Z,100720.75
2023-03-21T15:05:33.356Z,100720.06
2023-03-21T15:08:20.888Z,100709.56
2023-03-21T15:11:13.589Z,100705.56
2023-03-21T15:13:54.860Z,100703.97
2023-03-21T15:16:23.097Z,100698.75
2023-03-21T15:18:51.443Z,100698.53
2023-03-21T15:21:35.009Z,100699.22
2023-03-21T15:24:18.335Z,100694.19
2023-03-21T15:26:49.347Z,100689.06
2023-03-21T15:29:18.384Z,100691.97
2023-03-21T15:31:48.369Z,100686.94
2023-03-21T15:34:27.771Z,100687.06
2023-03-21T15:37:17.139Z,100687.66
2023-03-21T15:39:45.188Z,100687.22
2023-03-21T15:42:38.656Z,100686.81
2023-03-21T15:45:26.552Z,100684.84
2023-03-21T15:48:08.114Z,100692.94
2023-03-21T15:50:52.283Z,100671.50
2023-03-21T15:53:20.220Z,100679.78
2023-03-21T15:56:02.775Z,100679.25
2023-03-21T15:58:44.671Z,100682.59
2023-03-21T16:01:22.163Z,100674.63
2023-03-21T16:04:08.321Z,100676.28
2023-03-21T16:07:00.444Z,100672.06
2023-03-21T16:09:37.939Z,100666.66
2023-03-21T16:12:13.813Z,100661.25
2023-03-21T16:14:47.236Z,100665.09
2023-03-21T16:17:33.230Z,100650.88
2023-03-21T16:20:01.239Z,100655.00
2023-03-21T16:22:30.064Z,100653.19
2023-03-21T16:24:57.143Z,100659.19
2023-03-21T16:27:24.340Z,100655.56
2023-03-21T16:29:51.455Z,100659.19
2023-03-21T16:32:20.488Z,100658.78
2023-03-21T16:34:48.309Z,100649.63
2023-03-21T16:37:18.695Z,100656.66
2023-03-21T16:39:47.383Z,100658.72
2023-03-21T16:42:14.521Z,100657.03
2023-03-21T16:44:41.542Z,100664.31
2023-03-21T16:47:25.404Z,100667.25
2023-03-21T16:49:52.607Z,100664.97
2023-03-21T16:52:19.674Z,100660.84
2023-03-21T16:54:46.741Z,100663.16
2023-03-21T16:57:30.160Z,100670.03
2023-03-21T16:59:57.620Z,100667.59
2023-03-21T17:02:26.174Z,100666.16
2023-03-21T17:04:53.396Z,100659.56
2023-03-21T17:07:20.812Z,100661.56
2023-03-21T17:09:48.020Z,100655.19
2023-03-21T17:12:17.658Z,100664.16
2023-03-21T17:14:45.687Z,100651.41
2023-03-21T17:17:16.822Z,100647.59
2023-03-21T17:19:44.405Z,100645.63
2023-03-21T17:22:14.076Z,100637.50
2023-03-21T17:24:41.656Z,100635.22
2023-03-21T17:27:13.341Z,100647.28
2023-03-21T17:29:40.516Z,100644.28
2023-03-21T17:32:07.710Z,100650.88
2023-03-21T17:34:34.767Z,100638.75
2023-03-21T17:37:01.864Z,100636.03
2023-03-21T17:39:29.029Z,100641.97
2023-03-21T17:41:56.843Z,100642.28
2023-03-21T17:44:24.105Z,100638.75
2023-03-21T17:46:52.498Z,100635.84
2023-03-21T17:49:21.030Z,100632.94
2023-03-21T17:51:48.173Z,100633.50
2023-03-21T17:54:15.342Z,100634.31
2023-03-21T17:56:42.868Z,100635.34
2023-03-21T17:59:14.354Z,100624.69
2023-03-21T18:01:42.591Z,100633.22
2023-03-21T18:04:10.876Z,100630.56
2023-03-21T18:06:38.318Z,100628.66
2023-03-21T18:09:10.973Z,100627.47
2023-03-21T18:11:39.712Z,100635.44
2023-03-21T18:14:15.937Z,100623.72
2023-03-21T18:16:44.385Z,100632.19
2023-03-21T18:19:15.231Z,100631.84
2023-03-21T18:21:44.878Z,100625.19
2023-03-21T18:24:12.632Z,100629.13
2023-03-21T18:26:39.772Z,100627.03
2023-03-21T18:30:13.083Z,100625.03
2023-03-21T18:32:05.431Z,100623.41
2023-03-21T18:34:34.251Z,100622.19
2023-03-21T18:37:03.902Z,100616.44
2023-03-21T18:39:33.825Z,100626.03
2023-03-21T18:42:02.609Z,100623.91
2023-03-21T18:44:37.246Z,100624.00
2023-03-21T18:47:08.505Z,100622.19
2023-03-21T18:50:10.456Z,100626.34
2023-03-21T18:52:23.470Z,100619.81
2023-03-21T18:54:50.755Z,100621.34
2023-03-21T18:57:35.811Z,100610.13
2023-03-21T19:00:16.806Z,100616.22
2023-03-21T19:02:48.399Z,100619.28
2023-03-21T19:05:20.317Z,100615.84
2023-03-21T19:07:48.365Z,100617.88
2023-03-21T19:10:20.346Z,100625.25
2023-03-21T19:12:50.680Z,100615.47
2023-03-21T19:15:21.496Z,100622.34
2023-03-21T19:18:37.084Z,100613.19
2023-03-21T19:20:46.417Z,100622.47
2023-03-21T19:23:13.776Z,100624.84
2023-03-21T19:25:44.711Z,100625.13
2023-03-21T19:28:11.822Z,100627.81
2023-03-21T19:30:40.256Z,100622.34
2023-03-21T19:33:11.375Z,100627.25
2023-03-21T19:35:41.238Z,100622.41
2023-03-21T19:38:08.549Z,100625.59
2023-03-21T19:40:36.138Z,100619.13
2023-03-21T19:43:21.531Z,100623.44
2023-03-21T19:45:50.472Z,100619.41
2023-03-21T19:48:17.592Z,100616.03
2023-03-21T19:51:20.091Z,100619.72
2023-03-21T19:53:33.527Z,100614.84
2023-03-21T19:56:03.718Z,100616.78
2023-03-21T19:58:31.309Z,100620.75
2023-03-21T20:00:59.071Z,100617.28
2023-03-21T20:03:26.578Z,100608.94
2023-03-21T20:06:08.127Z,100611.75
2023-03-21T20:09:05.727Z,100605.22
2023-03-21T20:11:23.962Z,100603.31
2023-03-21T20:13:51.411Z,100605.34
2023-03-21T20:16:20.366Z,100609.53
2023-03-21T20:18:48.080Z,100612.50
2023-03-21T20:21:18.002Z,100611.72
2023-03-21T20:23:50.889Z,100607.88
2023-03-21T20:26:18.592Z,100611.91
2023-03-21T20:28:56.605Z,100616.94
2023-03-21T20:31:34.598Z,100618.00
2023-03-21T20:34:01.667Z,100616.59
2023-03-21T20:36:39.358Z,100612.97
2023-03-21T20:39:09.529Z,100608.09
2023-03-21T20:41:37.125Z,100614.06
2023-03-21T20:46:54.154Z,100612.22
2023-03-21T20:49:24.162Z,100609.03
2023-03-21T20:54:38.882Z,100613.31
2023-03-21T20:57:05.964Z,100611.94
2023-03-21T20:59:33.600Z,100615.53
2023-03-21T21:02:00.753Z,100608.91
2023-03-21T21:04:48.317Z,100611.84
2023-03-21T21:07:21.324Z,100607.09
2023-03-21T21:09:49.951Z,100609.16
2023-03-21T21:12:19.281Z,100615.50
2023-03-21T21:14:47.792Z,100623.63
2023-03-21T21:20:31.394Z,100611.84
2023-03-21T21:23:00.526Z,100583.75
2023-03-21T21:25:31.791Z,100587.00
2023-03-21T21:27:58.995Z,100579.50
2023-03-21T21:30:26.117Z,100582.38
2023-03-21T21:32:53.982Z,100577.50
2023-03-21T21:35:22.736Z,100575.34
2023-03-21T21:37:52.428Z,100579.56
2023-03-21T21:40:23.038Z,100581.28
2023-03-21T21:42:50.290Z,100592.97
2023-03-21T21:45:18.881Z,100594.94
2023-03-21T21:47:46.487Z,100575.66
2023-03-21T21:50:14.267Z,100574.19
2023-03-21T21:52:43.554Z,100562.69
2023-03-21T21:55:13.100Z,100564.44
2023-03-21T21:57:40.886Z,100565.56
2023-03-21T22:00:13.423Z,100563.88
2023-03-21T22:02:41.617Z,100561.09
2023-03-21T22:05:10.456Z,100573.56
2023-03-21T22:07:38.011Z,100566.22
2023-03-21T22:10:06.604Z,100564.09
2023-03-21T22:12:34.210Z,100563.53
2023-03-21T22:15:01.450Z,100560.47
2023-03-21T22:17:28.602Z,100564.06
2023-03-21T22:20:05.253Z,100564.56
2023-03-21T22:22:34.799Z,100569.84
2023-03-21T22:25:03.578Z,100570.94
2023-03-21T22:27:31.120Z,100563.59
2023-03-21T22:30:04.339Z,100560.72
2023-03-21T22:32:37.111Z,100563.75
2023-03-21T22:35:06.910Z,100562.50
2023-03-21T22:37:38.389Z,100569.78
2023-03-21T22:40:10.385Z,100573.94
2023-03-21T22:42:39.575Z,100565.97
2023-03-21T22:45:13.433Z,100568.19
2023-03-21T22:47:40.945Z,100570.41
2023-03-21T22:50:09.386Z,100568.31
2023-03-21T22:52:36.520Z,100568.72
2023-03-21T22:55:03.865Z,100559.88
2023-03-21T22:57:31.058Z,100556.53
2023-03-21T22:59:58.220Z,100565.81
2023-03-21T23:02:25.509Z,100551.56
2023-03-21T23:04:52.597Z,100556.28
2023-03-21T23:07:19.738Z,100558.75
2023-03-21T23:09:46.835Z,100556.00
2023-03-21T23:12:14.706Z,100569.00
2023-03-21T23:14:41.845Z,100566.97
2023-03-21T23:17:10.103Z,100563.84
2023-03-21T23:19:38.699Z,100564.81
2023-03-21T23:22:07.726Z,100550.41
2023-03-21T23:24:35.098Z,100563.25
2023-03-21T23:27:02.619Z,100559.41
2023-03-21T23:29:29.820Z,100554.81
2023-03-21T23:31:56.850Z,100551.91
2023-03-21T23:34:24.076Z,100551.19
2023-03-21T23:36:51.476Z,100542.09
2023-03-21T23:39:20.093Z,100545.69
2023-03-21T23:41:47.211Z,100540.69
2023-03-21T23:44:15.326Z,100548.16
2023-03-21T23:46:42.393Z,100539.16
2023-03-21T23:49:10.104Z,100536.13
2023-03-21T23:51:37.133Z,100524.66
2023-03-21T23:54:04.263Z,100522.69
2023-03-21T23:56:32.294Z,100523.28
2023-03-21T23:58:59.837Z,100523.84
